Time;durP1;ratioP1;P1;durP2;ratioP2;P2;SDS_P1;SDS_P2;PMS_P1;PMS_P2;Temp;Humidity;BMP_temperature;BMP_pressure;BME280_temperature;BME280_humidity;BME280_pressure;Samples;Min_cycle;Max_cycle;Signal;HPM_P1;HPM_P2
2021/03/12 00:00:27;;;;;;;7.88;2.05;;;;;;;;;;5135831;27;20126;-74
2021/03/12 00:02:53;;;;;;;7.05;1.98;;;;;;;;;;5117617;27;20035;-74
2021/03/12 00:05:19;;;;;;;3.15;1.50;;;;;;;;;;5116818;27;20076;-75
2021/03/12 00:07:45;;;;;;;4.30;1.70;;;;;;;;;;5118348;27;20038;-75
2021/03/12 00:10:13;;;;;;;4.68;2.45;;;;;;;;;;5117753;27;20042;-74
2021/03/12 00:12:39;;;;;;;6.28;2.10;;;;;;;;;;5118290;27;20031;-75
2021/03/12 00:15:07;;;;;;;11.05;2.60;;;;;;;;;;5135722;27;20034;-75
2021/03/12 00:17:33;;;;;;;10.73;3.35;;;;;;;;;;5101054;27;20038;-75
2021/03/12 00:19:58;;;;;;;10.18;2.70;;;;;;;;;;5135975;27;20023;-75
2021/03/12 00:22:24;;;;;;;6.10;2.70;;;;;;;;;;5117493;27;20038;-75
2021/03/12 00:24:49;;;;;;;5.70;2.20;;;;;;;;;;5135976;27;20038;-75
2021/03/12 00:27:15;;;;;;;5.40;1.90;;;;;;;;;;5117445;28;20034;-74
2021/03/12 00:29:40;;;;;;;6.25;2.30;;;;;;;;;;5135204;27;20124;-74
2021/03/12 00:32:07;;;;;;;5.43;1.90;;;;;;;;;;5117788;28;20092;-75
2021/03/12 00:34:32;;;;;;;5.20;1.80;;;;;;;;;;5134242;27;20042;-73
2021/03/12 00:36:58;;;;;;;6.85;1.83;;;;;;;;;;5134662;28;20041;-73
2021/03/12 00:39:24;;;;;;;4.43;1.30;;;;;;;;;;5116596;28;20035;-73
2021/03/12 00:41:52;;;;;;;4.72;1.40;;;;;;;;;;5134573;28;20557;-74
2021/03/12 00:44:19;;;;;;;3.63;1.75;;;;;;;;;;5115256;27;20058;-74
2021/03/12 00:46:47;;;;;;;3.50;1.23;;;;;;;;;;5115481;28;20062;-74
2021/03/12 00:49:13;;;;;;;5.00;1.38;;;;;;;;;;5115282;28;20480;-74
2021/03/12 00:51:42;;;;;;;4.00;1.48;;;;;;;;;;5115555;28;20027;-73
2021/03/12 00:54:12;;;;;;;2.50;0.90;;;;;;;;;;5115725;27;20090;-74
2021/03/12 00:56:41;;;;;;;3.58;1.08;;;;;;;;;;5115513;28;20508;-73
2021/03/12 00:59:08;;;;;;;3.38;1.02;;;;;;;;;;5115784;28;20038;-74
2021/03/12 01:01:43;;;;;;;2.50;0.90;;;;;;;;;;5115481;28;20035;-75
2021/03/12 01:04:09;;;;;;;3.20;1.10;;;;;;;;;;5115790;28;20034;-75
2021/03/12 01:06:35;;;;;;;2.00;1.00;;;;;;;;;;5115281;28;20031;-75
2021/03/12 01:09:04;;;;;;;1.55;0.95;;;;;;;;;;5115153;28;20036;-75
2021/03/12 01:11:34;;;;;;;2.08;1.00;;;;;;;;;;5098906;28;20400;-75
2021/03/12 01:14:02;;;;;;;2.38;1.23;;;;;;;;;;5115748;28;20027;-75
2021/03/12 01:16:34;;;;;;;3.92;1.35;;;;;;;;;;5115465;28;20031;-75
2021/03/12 01:19:02;;;;;;;2.40;0.90;;;;;;;;;;5114715;28;20031;-74
2021/03/12 01:21:31;;;;;;;3.45;1.25;;;;;;;;;;5115517;28;20038;-75
2021/03/12 01:23:58;;;;;;;2.65;1.05;;;;;;;;;;5115723;28;20031;-75
2021/03/12 01:26:25;;;;;;;3.78;1.10;;;;;;;;;;5116029;28;20049;-75
2021/03/12 01:29:02;;;;;;;1.77;0.90;;;;;;;;;;5115794;28;20064;-75
2021/03/12 01:31:45;;;;;;;4.68;1.42;;;;;;;;;;5115405;28;20366;-75
2021/03/12 01:34:14;;;;;;;3.58;1.05;;;;;;;;;;5115163;27;20031;-74
2021/03/12 01:36:40;;;;;;;1.92;1.17;;;;;;;;;;5114824;28;20726;-74
2021/03/12 01:39:08;;;;;;;3.15;1.50;;;;;;;;;;5115260;28;20042;-74
2021/03/12 01:41:33;;;;;;;7.32;2.00;;;;;;;;;;5117124;27;20027;-74
2021/03/12 01:44:05;;;;;;;5.80;1.98;;;;;;;;;;5118692;27;20023;-75
2021/03/12 01:46:33;;;;;;;4.55;1.50;;;;;;;;;;5115048;28;20052;-75
2021/03/12 01:48:59;;;;;;;4.35;1.50;;;;;;;;;;5115199;28;20037;-75
2021/03/12 01:51:25;;;;;;;7.72;2.33;;;;;;;;;;5115125;28;20036;-75
2021/03/12 01:53:51;;;;;;;5.43;1.60;;;;;;;;;;5098431;28;20030;-75
2021/03/12 01:56:17;;;;;;;5.50;2.22;;;;;;;;;;5116008;28;20451;-75
2021/03/12 01:58:51;;;;;;;8.38;1.98;;;;;;;;;;5114936;28;20033;-75
2021/03/12 02:01:34;;;;;;;4.68;1.67;;;;;;;;;;5115195;28;20089;-75
2021/03/12 02:04:05;;;;;;;6.50;1.73;;;;;;;;;;5115076;28;20028;-75
2021/03/12 02:06:51;;;;;;;2.75;1.42;;;;;;;;;;5116810;28;20054;-75
2021/03/12 02:09:19;;;;;;;4.55;1.70;;;;;;;;;;5115253;28;20135;-75
2021/03/12 02:12:05;;;;;;;5.05;1.52;;;;;;;;;;5116238;28;20118;-75
2021/03/12 02:15:05;;;;;;;4.28;2.00;;;;;;;;;;5098638;28;20104;-75
2021/03/12 02:18:10;;;;;;;4.25;1.73;;;;;;;;;;5115258;28;20031;-75
2021/03/12 02:20:39;;;;;;;3.38;1.52;;;;;;;;;;5086187;28;20040;-75
2021/03/12 02:23:18;;;;;;;6.90;2.10;;;;;;;;;;5094825;28;20032;-75
2021/03/12 02:25:56;;;;;;;4.82;2.22;;;;;;;;;;5106074;28;20135;-75
2021/03/12 02:28:22;;;;;;;7.95;2.05;;;;;;;;;;5094926;28;20417;-75
2021/03/12 02:30:48;;;;;;;5.93;2.58;;;;;;;;;;5094891;28;20031;-75
2021/03/12 02:33:14;;;;;;;6.22;2.30;;;;;;;;;;5094464;28;20028;-75
2021/03/12 02:35:46;;;;;;;7.30;2.40;;;;;;;;;;5077858;28;20169;-74
2021/03/12 02:38:29;;;;;;;10.10;2.63;;;;;;;;;;5094089;28;20028;-74
2021/03/12 02:41:02;;;;;;;9.82;2.80;;;;;;;;;;5093860;28;20028;-74
2021/03/12 02:43:32;;;;;;;9.43;2.47;;;;;;;;;;5094007;28;20032;-74
2021/03/12 02:45:58;;;;;;;5.82;2.50;;;;;;;;;;5093777;28;20141;-74
2021/03/12 02:48:25;;;;;;;4.18;2.10;;;;;;;;;;5101611;28;20031;-73
2021/03/12 02:50:52;;;;;;;5.80;2.22;;;;;;;;;;5114107;28;20461;-73
2021/03/12 02:53:23;;;;;;;4.03;2.35;;;;;;;;;;5113205;28;20031;-74
2021/03/12 02:55:55;;;;;;;4.32;1.92;;;;;;;;;;5113681;28;20446;-74
2021/03/12 02:58:24;;;;;;;1.70;1.58;;;;;;;;;;5114985;28;20024;-75
2021/03/12 03:00:55;;;;;;;2.67;1.65;;;;;;;;;;5097376;28;20027;-75
2021/03/12 03:03:30;;;;;;;3.25;1.67;;;;;;;;;;5097697;28;20036;-75
2021/03/12 03:06:12;;;;;;;2.92;1.80;;;;;;;;;;5113346;28;20028;-75
2021/03/12 03:08:42;;;;;;;2.55;1.70;;;;;;;;;;5115205;28;20075;-75
2021/03/12 03:11:12;;;;;;;3.75;1.83;;;;;;;;;;5113128;28;20034;-75
2021/03/12 03:13:41;;;;;;;4.20;1.63;;;;;;;;;;5113695;28;20031;-75
2021/03/12 03:16:17;;;;;;;1.95;1.35;;;;;;;;;;5113577;28;20573;-74
2021/03/12 03:18:44;;;;;;;3.65;1.80;;;;;;;;;;5113608;28;20366;-74
2021/03/12 03:21:11;;;;;;;2.70;1.55;;;;;;;;;;5114858;28;20039;-73
2021/03/12 03:23:41;;;;;;;4.85;1.67;;;;;;;;;;5114119;28;20031;-73
2021/03/12 03:26:07;;;;;;;2.15;1.45;;;;;;;;;;5114574;28;20427;-74
2021/03/12 03:28:37;;;;;;;5.15;2.78;;;;;;;;;;5112903;28;20389;-73
2021/03/12 03:31:04;;;;;;;3.30;1.95;;;;;;;;;;5113432;28;20111;-74
2021/03/12 03:33:31;;;;;;;4.40;1.92;;;;;;;;;;5113474;28;20457;-74
2021/03/12 03:35:58;;;;;;;6.32;2.60;;;;;;;;;;5113113;28;20106;-74
2021/03/12 03:38:24;;;;;;;5.47;2.50;;;;;;;;;;5113328;28;20122;-74
2021/03/12 03:40:51;;;;;;;5.63;2.78;;;;;;;;;;5114290;28;20043;-74
2021/03/12 03:43:22;;;;;;;8.40;3.42;;;;;;;;;;5096105;28;20035;-74
2021/03/12 03:45:49;;;;;;;8.27;3.70;;;;;;;;;;5127359;27;20157;-74
2021/03/12 03:48:34;;;;;;;7.00;3.47;;;;;;;;;;5116914;27;20559;-76
2021/03/12 03:51:01;;;;;;;5.97;3.13;;;;;;;;;;5116595;27;20122;-77
2021/03/12 03:53:31;;;;;;;7.30;3.60;;;;;;;;;;5116208;27;20023;-75
2021/03/12 03:56:00;;;;;;;6.05;3.42;;;;;;;;;;5116122;27;20042;-75
2021/03/12 03:58:26;;;;;;;9.05;3.92;;;;;;;;;;5116243;27;20422;-76
2021/03/12 04:00:52;;;;;;;10.55;4.32;;;;;;;;;;5134753;27;20086;-76
2021/03/12 04:03:21;;;;;;;8.63;4.82;;;;;;;;;;5115993;27;20037;-76
2021/03/12 04:05:57;;;;;;;9.18;4.93;;;;;;;;;;5115074;27;20027;-76
2021/03/12 04:08:24;;;;;;;8.80;4.30;;;;;;;;;;5115962;27;20027;-75
2021/03/12 04:10:51;;;;;;;12.15;5.00;;;;;;;;;;5116216;27;20091;-75
2021/03/12 04:13:18;;;;;;;6.95;4.93;;;;;;;;;;5116183;27;20026;-75
2021/03/12 04:15:44;;;;;;;13.73;4.95;;;;;;;;;;5115383;27;20027;-75
2021/03/12 04:18:12;;;;;;;8.38;4.32;;;;;;;;;;5115947;27;20621;-75
2021/03/12 04:20:41;;;;;;;7.78;4.28;;;;;;;;;;5115973;28;20100;-75
2021/03/12 04:23:07;;;;;;;6.28;4.15;;;;;;;;;;5115693;27;20034;-75
2021/03/12 04:25:34;;;;;;;9.77;5.82;;;;;;;;;;5115682;27;20538;-75
2021/03/12 04:28:01;;;;;;;14.00;5.43;;;;;;;;;;5115912;27;20031;-75
2021/03/12 04:30:28;;;;;;;11.68;5.90;;;;;;;;;;5134308;27;20388;-75
2021/03/12 04:32:55;;;;;;;9.50;4.90;;;;;;;;;;5115593;28;20030;-75
2021/03/12 04:35:21;;;;;;;15.77;4.78;;;;;;;;;;5134189;27;20035;-75
2021/03/12 04:37:47;;;;;;;6.80;4.53;;;;;;;;;;5134241;28;20369;-75
2021/03/12 04:40:17;;;;;;;10.07;4.45;;;;;;;;;;5116036;28;20042;-75
2021/03/12 04:42:46;;;;;;;8.05;4.68;;;;;;;;;;5115369;28;20484;-75
2021/03/12 04:45:13;;;;;;;10.75;4.50;;;;;;;;;;5115498;28;20051;-75
2021/03/12 04:47:43;;;;;;;7.30;4.10;;;;;;;;;;5115561;28;20497;-76
2021/03/12 04:50:11;;;;;;;7.78;3.90;;;;;;;;;;5109396;28;20027;-76
2021/03/12 04:52:38;;;;;;;5.45;3.42;;;;;;;;;;5095019;28;20030;-76
2021/03/12 04:55:04;;;;;;;8.93;4.20;;;;;;;;;;5095207;28;20032;-75
2021/03/12 04:57:31;;;;;;;8.50;3.58;;;;;;;;;;5121658;28;20031;-76
2021/03/12 04:59:57;;;;;;;5.53;3.20;;;;;;;;;;5115723;28;20027;-76
2021/03/12 05:02:25;;;;;;;9.32;3.70;;;;;;;;;;5115551;28;20037;-76
2021/03/12 05:04:58;;;;;;;9.20;3.28;;;;;;;;;;5115913;28;20023;-75
2021/03/12 05:07:25;;;;;;;7.28;3.28;;;;;;;;;;5118190;28;20080;-77
2021/03/12 05:10:07;;;;;;;7.40;3.47;;;;;;;;;;5119844;28;20035;-78
2021/03/12 05:12:33;;;;;;;9.23;3.53;;;;;;;;;;5120682;28;20023;-78
2021/03/12 05:14:59;;;;;;;6.75;4.53;;;;;;;;;;5119776;27;20031;-78
2021/03/12 05:17:25;;;;;;;5.63;3.40;;;;;;;;;;5124245;27;20034;-79
2021/03/12 05:19:51;;;;;;;8.25;3.30;;;;;;;;;;5128548;27;20370;-75
2021/03/12 05:22:16;;;;;;;9.30;3.70;;;;;;;;;;5117245;28;20028;-73
2021/03/12 05:24:42;;;;;;;7.25;3.55;;;;;;;;;;5098966;28;20039;-74
2021/03/12 05:27:09;;;;;;;8.57;3.20;;;;;;;;;;5098712;28;20028;-75
2021/03/12 05:29:42;;;;;;;7.68;3.78;;;;;;;;;;5100658;28;20028;-76
2021/03/12 05:32:07;;;;;;;8.02;3.40;;;;;;;;;;5098076;28;20413;-75
2021/03/12 05:34:37;;;;;;;8.15;3.53;;;;;;;;;;5098269;28;20054;-75
2021/03/12 05:37:04;;;;;;;7.53;3.45;;;;;;;;;;5122298;27;20055;-75
2021/03/12 05:39:29;;;;;;;7.90;4.50;;;;;;;;;;5097396;28;20076;-75
2021/03/12 05:41:56;;;;;;;9.80;4.47;;;;;;;;;;5098309;28;20074;-75
2021/03/12 05:44:31;;;;;;;13.15;5.32;;;;;;;;;;5098194;28;20111;-75
2021/03/12 05:46:59;;;;;;;9.82;4.22;;;;;;;;;;5098510;28;20039;-75
2021/03/12 05:49:26;;;;;;;10.38;4.50;;;;;;;;;;5124553;27;20035;-75
2021/03/12 05:51:51;;;;;;;8.13;4.68;;;;;;;;;;5101262;27;20058;-75
2021/03/12 05:54:17;;;;;;;10.27;4.47;;;;;;;;;;5136346;27;20067;-75
2021/03/12 05:56:44;;;;;;;8.20;4.10;;;;;;;;;;5118529;27;20041;-75
2021/03/12 05:59:11;;;;;;;12.63;4.22;;;;;;;;;;5117912;27;20034;-75
2021/03/12 06:01:38;;;;;;;10.52;4.65;;;;;;;;;;5118390;27;20499;-75
2021/03/12 06:04:04;;;;;;;9.63;4.45;;;;;;;;;;5118320;27;20023;-75
2021/03/12 06:06:30;;;;;;;7.43;3.92;;;;;;;;;;5118481;27;20083;-75
2021/03/12 06:08:56;;;;;;;9.82;3.97;;;;;;;;;;5118654;27;20023;-75
2021/03/12 06:11:22;;;;;;;9.55;3.85;;;;;;;;;;5118466;27;20392;-75
2021/03/12 06:13:54;;;;;;;11.88;4.07;;;;;;;;;;5118400;27;20023;-75
2021/03/12 06:16:31;;;;;;;12.93;3.75;;;;;;;;;;5118192;27;20064;-75
2021/03/12 06:19:20;;;;;;;10.95;3.83;;;;;;;;;;5118156;27;20033;-75
2021/03/12 06:22:06;;;;;;;;;;;;;;;;;;5103464;27;20027;-75
2021/03/12 06:24:33;;;;;;;9.15;3.08;;;;;;;;;;5135882;27;19918;-76
2021/03/12 06:27:30;;;;;;;10.45;3.90;;;;;;;;;;5118263;27;20035;-76
2021/03/12 06:30:15;;;;;;;7.63;3.33;;;;;;;;;;5103368;27;20035;-76
2021/03/12 06:32:57;;;;;;;10.57;2.90;;;;;;;;;;5118061;27;20110;-75
2021/03/12 06:35:37;;;;;;;13.32;4.63;;;;;;;;;;5117696;27;20035;-76
2021/03/12 06:38:26;;;;;;;9.50;3.78;;;;;;;;;;5130159;27;20039;-76
2021/03/12 06:41:00;;;;;;;7.28;3.30;;;;;;;;;;5117996;27;20377;-76
2021/03/12 06:43:36;;;;;;;;;;;;;;;;;;5118042;27;20122;-76
2021/03/12 06:46:03;;;;;;;10.65;3.03;;;;;;;;;;5117551;27;19926;-76
2021/03/12 06:48:43;;;;;;;8.82;2.92;;;;;;;;;;5102670;27;20066;-76
2021/03/12 06:51:56;;;;;;;13.32;3.78;;;;;;;;;;5062529;27;20037;-76
2021/03/12 06:54:24;;;;;;;11.82;3.17;;;;;;;;;;5117646;27;20457;-76
2021/03/12 06:56:56;;;;;;;12.13;3.35;;;;;;;;;;5117404;27;20058;-76
2021/03/12 06:59:32;;;;;;;11.25;2.90;;;;;;;;;;5117387;27;20109;-75
2021/03/12 07:02:13;;;;;;;11.70;2.75;;;;;;;;;;5117261;27;20031;-75
2021/03/12 07:04:55;;;;;;;;;;;;;;;;;;5117815;27;20035;-75
2021/03/12 07:07:41;;;;;;;14.73;3.05;;;;;;;;;;5135703;27;19918;-75
2021/03/12 07:10:18;;;;;;;7.15;2.60;;;;;;;;;;5117403;27;20122;-75
2021/03/12 07:12:52;;;;;;;11.52;3.10;;;;;;;;;;5117239;27;20038;-75
2021/03/12 07:15:22;;;;;;;10.45;2.65;;;;;;;;;;5117112;27;20031;-75
2021/03/12 07:18:01;;;;;;;7.35;2.60;;;;;;;;;;5116977;27;20031;-75
2021/03/12 07:20:29;;;;;;;8.88;2.53;;;;;;;;;;5116212;27;20114;-75
2021/03/12 07:22:59;;;;;;;8.68;2.85;;;;;;;;;;5117023;27;20028;-75
2021/03/12 07:25:26;;;;;;;7.32;2.30;;;;;;;;;;5116994;27;20031;-75
2021/03/12 07:28:02;;;;;;;8.70;2.13;;;;;;;;;;5117009;27;20027;-75
2021/03/12 07:30:38;;;;;;;9.05;2.72;;;;;;;;;;5116737;27;20031;-75
2021/03/12 07:33:04;;;;;;;5.78;2.22;;;;;;;;;;5116567;27;20027;-75
2021/03/12 07:35:37;;;;;;;14.27;3.58;;;;;;;;;;5116873;27;20489;-75
2021/03/12 07:38:11;;;;;;;6.50;2.65;;;;;;;;;;5116483;27;20038;-75
2021/03/12 07:40:42;;;;;;;6.90;2.60;;;;;;;;;;5116534;27;20027;-75
2021/03/12 07:43:39;;;;;;;7.10;2.70;;;;;;;;;;5116649;27;20023;-75
2021/03/12 07:46:15;;;;;;;10.82;3.72;;;;;;;;;;5116327;27;20540;-75
2021/03/12 07:49:32;;;;;;;9.85;2.08;;;;;;;;;;5116512;27;20031;-75
2021/03/12 07:52:05;;;;;;;6.90;2.40;;;;;;;;;;5116068;27;20027;-75
2021/03/12 07:54:37;;;;;;;7.68;2.67;;;;;;;;;;5116615;27;20087;-75
2021/03/12 07:57:36;;;;;;;5.88;1.88;;;;;;;;;;5116471;27;20595;-74
2021/03/12 08:00:20;;;;;;;5.93;1.95;;;;;;;;;;5134151;27;20438;-75
2021/03/12 08:03:05;;;;;;;7.72;1.95;;;;;;;;;;5116190;27;20031;-76
2021/03/12 08:05:57;;;;;;;7.43;2.17;;;;;;;;;;5115859;27;20060;-75
2021/03/12 08:08:37;;;;;;;8.93;2.35;;;;;;;;;;5134512;27;20401;-74
2021/03/12 08:11:36;;;;;;;7.03;2.03;;;;;;;;;;5116171;27;20050;-74
2021/03/12 08:14:22;;;;;;;7.18;2.00;;;;;;;;;;5115796;27;20027;-75
2021/03/12 08:17:04;;;;;;;3.97;1.92;;;;;;;;;;5134541;27;20107;-74
2021/03/12 08:19:37;;;;;;;4.38;1.70;;;;;;;;;;5115465;27;20027;-74
2021/03/12 08:22:28;;;;;;;7.78;1.85;;;;;;;;;;5134619;27;20051;-74
2021/03/12 08:24:58;;;;;;;4.68;1.73;;;;;;;;;;5115940;27;20099;-75
2021/03/12 08:27:47;;;;;;;7.30;2.30;;;;;;;;;;5119249;27;20068;-76
2021/03/12 08:30:33;;;;;;;3.65;1.38;;;;;;;;;;5134696;27;20047;-76
2021/03/12 08:33:09;;;;;;;7.90;1.90;;;;;;;;;;5115901;28;20032;-77
2021/03/12 08:35:53;;;;;;;4.72;1.60;;;;;;;;;;5102156;28;20053;-75
2021/03/12 08:38:42;;;;;;;10.45;1.90;;;;;;;;;;5115912;28;20047;-75
2021/03/12 08:41:22;;;;;;;4.43;1.58;;;;;;;;;;5115664;28;20510;-76
2021/03/12 08:44:17;;;;;;;10.35;2.15;;;;;;;;;;5111639;27;20043;-76
2021/03/12 08:47:21;;;;;;;11.20;2.70;;;;;;;;;;5050582;28;20052;-75
2021/03/12 08:49:52;;;;;;;8.35;2.13;;;;;;;;;;5050005;28;20040;-75
2021/03/12 08:52:24;;;;;;;9.65;2.50;;;;;;;;;;5087756;28;20122;-75
2021/03/12 08:54:57;;;;;;;10.23;2.35;;;;;;;;;;5099454;28;20027;-75
2021/03/12 08:57:25;;;;;;;7.03;2.17;;;;;;;;;;5099290;28;20084;-72
2021/03/12 09:00:08;;;;;;;4.55;1.77;;;;;;;;;;5083805;28;20062;-72
2021/03/12 09:02:52;;;;;;;5.10;1.80;;;;;;;;;;5117474;28;20066;-72
2021/03/12 09:05:29;;;;;;;8.30;2.67;;;;;;;;;;5099221;28;20031;-72
2021/03/12 09:08:10;;;;;;;12.82;2.75;;;;;;;;;;5099289;28;20027;-72
2021/03/12 09:10:49;;;;;;;9.40;2.22;;;;;;;;;;5099087;28;20035;-71
2021/03/12 09:13:28;;;;;;;11.95;2.45;;;;;;;;;;5098770;28;20516;-74
2021/03/12 09:15:56;;;;;;;7.40;2.20;;;;;;;;;;5099148;28;20035;-74
2021/03/12 09:18:23;;;;;;;8.80;2.03;;;;;;;;;;5098690;28;20030;-73
2021/03/12 09:20:52;;;;;;;14.68;3.00;;;;;;;;;;5098826;28;20491;-73
2021/03/12 09:23:40;;;;;;;6.90;2.10;;;;;;;;;;5098620;28;20051;-73
2021/03/12 09:26:07;;;;;;;5.73;1.57;;;;;;;;;;5098984;28;20038;-73
2021/03/12 09:28:39;;;;;;;7.90;2.33;;;;;;;;;;5098803;28;20469;-73
2021/03/12 09:31:12;;;;;;;5.75;2.00;;;;;;;;;;5098901;28;20035;-73
2021/03/12 09:33:46;;;;;;;7.65;1.98;;;;;;;;;;5098736;28;20031;-73
2021/03/12 09:36:36;;;;;;;6.82;2.20;;;;;;;;;;5098422;28;20027;-74
2021/03/12 09:39:18;;;;;;;10.55;2.55;;;;;;;;;;5098640;28;20430;-73
2021/03/12 09:41:51;;;;;;;7.97;2.60;;;;;;;;;;5098544;28;20038;-74
2021/03/12 09:44:17;;;;;;;7.68;2.25;;;;;;;;;;5098272;28;20447;-74
2021/03/12 09:47:03;;;;;;;8.68;2.22;;;;;;;;;;5097194;28;20028;-73
2021/03/12 09:49:40;;;;;;;9.02;2.40;;;;;;;;;;5097307;28;20036;-74
2021/03/12 09:52:14;;;;;;;9.35;2.20;;;;;;;;;;5104971;28;20042;-73
2021/03/12 09:54:45;;;;;;;10.57;2.40;;;;;;;;;;5117507;28;20039;-73
2021/03/12 09:57:21;;;;;;;11.50;2.00;;;;;;;;;;5117365;28;20038;-73
2021/03/12 09:59:51;;;;;;;8.15;2.40;;;;;;;;;;5117543;28;20043;-73
2021/03/12 10:02:25;;;;;;;16.98;2.65;;;;;;;;;;5116629;28;20038;-73
2021/03/12 10:05:10;;;;;;;9.18;2.45;;;;;;;;;;5120056;28;20042;-74
2021/03/12 10:07:53;;;;;;;6.97;2.10;;;;;;;;;;5135878;28;20068;-73
2021/03/12 10:10:34;;;;;;;8.77;2.58;;;;;;;;;;5117268;28;20038;-74
2021/03/12 10:13:06;;;;;;;8.13;2.55;;;;;;;;;;5135621;28;20492;-73
2021/03/12 10:15:41;;;;;;;11.20;2.50;;;;;;;;;;5117222;28;20046;-74
2021/03/12 10:18:17;;;;;;;12.15;2.33;;;;;;;;;;5117047;28;20288;-74
2021/03/12 10:20:43;;;;;;;17.63;2.78;;;;;;;;;;5135674;28;20050;-73
2021/03/12 10:23:10;;;;;;;10.48;2.35;;;;;;;;;;5134775;28;20469;-73
2021/03/12 10:25:42;;;;;;;12.32;3.58;;;;;;;;;;5117109;28;20038;-73
2021/03/12 10:28:15;;;;;;;7.20;2.22;;;;;;;;;;5135445;28;20035;-74
2021/03/12 10:30:43;;;;;;;11.23;2.60;;;;;;;;;;5135348;28;20122;-73
2021/03/12 10:33:22;;;;;;;9.23;2.25;;;;;;;;;;5135472;28;20066;-73
2021/03/12 10:35:50;;;;;;;9.02;3.08;;;;;;;;;;5135356;27;20035;-73
2021/03/12 10:38:21;;;;;;;12.15;2.50;;;;;;;;;;5135309;28;20066;-73
2021/03/12 10:40:55;;;;;;;6.05;2.20;;;;;;;;;;5116932;28;20059;-73
2021/03/12 10:43:23;;;;;;;16.10;6.88;;;;;;;;;;5135172;28;20426;-73
2021/03/12 10:45:50;;;;;;;9.38;2.33;;;;;;;;;;5117028;27;521638;-73
2021/03/12 10:48:18;;;;;;;14.88;6.53;;;;;;;;;;5136214;27;20473;-73
2021/03/12 10:50:50;;;;;;;15.10;4.15;;;;;;;;;;5135420;27;20106;-73
2021/03/12 10:53:16;;;;;;;8.15;2.20;;;;;;;;;;5136104;27;20058;-74
2021/03/12 10:55:44;;;;;;;8.88;2.10;;;;;;;;;;5116891;27;20051;-73
2021/03/12 10:58:27;;;;;;;6.70;2.00;;;;;;;;;;5136024;27;20373;-73
2021/03/12 11:01:20;;;;;;;9.20;1.88;;;;;;;;;;5136013;27;20034;-74
2021/03/12 11:03:46;;;;;;;6.85;2.03;;;;;;;;;;5135631;27;20050;-73
2021/03/12 11:06:13;;;;;;;9.27;2.30;;;;;;;;;;5135141;27;20035;-73
2021/03/12 11:08:39;;;;;;;7.97;2.30;;;;;;;;;;5135803;27;20031;-73
2021/03/12 11:11:07;;;;;;;9.32;2.58;;;;;;;;;;5135744;27;20027;-73
2021/03/12 11:13:34;;;;;;;5.82;1.80;;;;;;;;;;5134335;27;20019;-73
2021/03/12 11:16:00;;;;;;;9.32;1.98;;;;;;;;;;5116740;27;20027;-73
2021/03/12 11:18:28;;;;;;;13.32;2.53;;;;;;;;;;5135265;27;20057;-73
2021/03/12 11:20:54;;;;;;;6.60;1.98;;;;;;;;;;5135205;27;20079;-73
2021/03/12 11:23:20;;;;;;;9.20;2.17;;;;;;;;;;5095854;28;20040;-73
2021/03/12 11:25:46;;;;;;;4.63;1.73;;;;;;;;;;5096532;28;20028;-73
2021/03/12 11:28:11;;;;;;;10.98;2.92;;;;;;;;;;5128769;27;20042;-73
2021/03/12 11:30:37;;;;;;;7.85;1.70;;;;;;;;;;5135252;27;20097;-73
2021/03/12 11:33:03;;;;;;;11.23;2.50;;;;;;;;;;5116841;27;20113;-73
2021/03/12 11:35:29;;;;;;;8.20;2.13;;;;;;;;;;5135030;27;20506;-73
2021/03/12 11:37:54;;;;;;;6.07;1.70;;;;;;;;;;5135103;27;20039;-73
2021/03/12 11:40:20;;;;;;;8.48;2.38;;;;;;;;;;5135276;27;20053;-73
2021/03/12 11:42:45;;;;;;;11.10;1.88;;;;;;;;;;5134981;27;20039;-73
2021/03/12 11:45:14;;;;;;;7.65;2.15;;;;;;;;;;5134675;27;20096;-73
2021/03/12 11:47:39;;;;;;;5.15;1.70;;;;;;;;;;5116617;27;20385;-73
2021/03/12 11:50:08;;;;;;;5.97;1.63;;;;;;;;;;5135050;27;20534;-73
2021/03/12 11:52:34;;;;;;;7.53;2.00;;;;;;;;;;5134826;27;20043;-74
2021/03/12 11:54:59;;;;;;;9.63;2.65;;;;;;;;;;5116537;27;20042;-73
2021/03/12 11:57:25;;;;;;;7.03;1.70;;;;;;;;;;5133149;27;20031;-73
2021/03/12 11:59:51;;;;;;;6.40;2.17;;;;;;;;;;5116019;27;20062;-73
2021/03/12 12:02:17;;;;;;;7.68;2.40;;;;;;;;;;5116403;27;20015;-73
2021/03/12 12:04:44;;;;;;;6.13;1.70;;;;;;;;;;5134783;27;20042;-73
2021/03/12 12:07:11;;;;;;;6.63;1.60;;;;;;;;;;5134304;27;20083;-73
2021/03/12 12:09:37;;;;;;;6.22;1.48;;;;;;;;;;5134152;27;20030;-73
2021/03/12 12:12:03;;;;;;;9.45;1.60;;;;;;;;;;5116168;27;20041;-73
2021/03/12 12:14:28;;;;;;;5.32;1.48;;;;;;;;;;5116280;27;20123;-73
2021/03/12 12:16:54;;;;;;;12.65;3.05;;;;;;;;;;5134570;27;20139;-74
2021/03/12 12:19:19;;;;;;;6.88;1.92;;;;;;;;;;5116004;27;20142;-73
2021/03/12 12:21:46;;;;;;;6.40;2.25;;;;;;;;;;5133833;27;20039;-73
2021/03/12 12:24:12;;;;;;;6.88;2.00;;;;;;;;;;5134395;27;20039;-73
2021/03/12 12:26:37;;;;;;;6.65;2.05;;;;;;;;;;5134119;27;20114;-73
2021/03/12 12:29:07;;;;;;;9.07;2.22;;;;;;;;;;5134345;27;20449;-73
2021/03/12 12:31:34;;;;;;;6.13;2.42;;;;;;;;;;5134404;27;20445;-73
2021/03/12 12:34:00;;;;;;;7.38;2.67;;;;;;;;;;5134439;27;20031;-73
2021/03/12 12:36:27;;;;;;;8.02;2.30;;;;;;;;;;5134175;27;20477;-73
2021/03/12 12:38:53;;;;;;;9.60;2.17;;;;;;;;;;5134226;28;20050;-73
2021/03/12 12:41:20;;;;;;;4.95;1.60;;;;;;;;;;5133922;28;20457;-72
2021/03/12 12:43:46;;;;;;;8.25;1.98;;;;;;;;;;5115427;28;20027;-72
2021/03/12 12:46:12;;;;;;;7.05;1.90;;;;;;;;;;5134055;27;20404;-72
2021/03/12 12:48:38;;;;;;;4.20;1.48;;;;;;;;;;5134074;28;20034;-72
2021/03/12 12:51:03;;;;;;;4.18;1.60;;;;;;;;;;5133508;28;20606;-72
2021/03/12 12:53:29;;;;;;;7.78;1.88;;;;;;;;;;5133761;28;20023;-71
2021/03/12 12:55:54;;;;;;;6.30;1.65;;;;;;;;;;5134019;27;20122;-72
2021/03/12 12:58:20;;;;;;;6.07;2.13;;;;;;;;;;5134041;28;20031;-72
2021/03/12 13:00:45;;;;;;;8.88;1.90;;;;;;;;;;5133848;28;20027;-71
2021/03/12 13:03:11;;;;;;;7.57;1.80;;;;;;;;;;5133127;28;20039;-72
2021/03/12 13:05:36;;;;;;;6.07;2.30;;;;;;;;;;5134070;27;20434;-72
2021/03/12 13:08:02;;;;;;;7.05;2.30;;;;;;;;;;5133802;28;20034;-72
2021/03/12 13:10:28;;;;;;;4.78;1.73;;;;;;;;;;5133768;28;20397;-72
2021/03/12 13:12:53;;;;;;;6.90;2.05;;;;;;;;;;5115336;28;20069;-72
2021/03/12 13:15:19;;;;;;;4.53;1.58;;;;;;;;;;5133999;27;20047;-72
2021/03/12 13:17:44;;;;;;;8.20;1.73;;;;;;;;;;5098641;28;20041;-72
2021/03/12 13:20:12;;;;;;;5.07;1.50;;;;;;;;;;5133249;28;20058;-72
2021/03/12 13:22:39;;;;;;;7.38;1.70;;;;;;;;;;5133767;28;20038;-72
2021/03/12 13:25:06;;;;;;;7.90;1.98;;;;;;;;;;5115464;28;20126;-72
2021/03/12 13:27:35;;;;;;;7.95;1.98;;;;;;;;;;5133827;28;20054;-72
2021/03/12 13:30:06;;;;;;;6.53;2.22;;;;;;;;;;5117823;28;20427;-72
2021/03/12 13:32:31;;;;;;;8.35;1.80;;;;;;;;;;5113309;28;20035;-72
2021/03/12 13:34:56;;;;;;;8.40;2.15;;;;;;;;;;5112987;28;20084;-72
2021/03/12 13:37:22;;;;;;;6.88;1.95;;;;;;;;;;5096311;28;20038;-72
2021/03/12 13:39:47;;;;;;;5.10;1.70;;;;;;;;;;5116929;28;20027;-71
2021/03/12 13:42:13;;;;;;;3.97;1.77;;;;;;;;;;5098744;28;20517;-72
2021/03/12 13:44:38;;;;;;;10.25;2.10;;;;;;;;;;5116534;28;20036;-72
2021/03/12 13:47:04;;;;;;;8.95;2.13;;;;;;;;;;5103248;27;20101;-72
2021/03/12 13:49:30;;;;;;;4.28;1.60;;;;;;;;;;5137230;27;20480;-72
2021/03/12 13:51:56;;;;;;;8.13;1.88;;;;;;;;;;5137358;27;20461;-72
2021/03/12 13:54:21;;;;;;;5.68;1.80;;;;;;;;;;5137071;27;20041;-72
2021/03/12 13:56:48;;;;;;;4.80;1.48;;;;;;;;;;5118841;27;20042;-72
2021/03/12 13:59:14;;;;;;;6.88;1.50;;;;;;;;;;5137273;27;20039;-72
2021/03/12 14:01:40;;;;;;;8.25;1.80;;;;;;;;;;5118785;27;20039;-72
2021/03/12 14:04:05;;;;;;;5.47;1.80;;;;;;;;;;5136764;27;20130;-72
2021/03/12 14:06:31;;;;;;;7.25;1.63;;;;;;;;;;5135991;27;20045;-72
2021/03/12 14:08:56;;;;;;;8.35;1.80;;;;;;;;;;5118422;27;20038;-72
2021/03/12 14:11:25;;;;;;;6.20;1.60;;;;;;;;;;5136839;27;20449;-72
2021/03/12 14:13:50;;;;;;;8.45;1.75;;;;;;;;;;5136401;27;20039;-72
2021/03/12 14:16:23;;;;;;;7.75;2.58;;;;;;;;;;5118265;27;20055;-71
2021/03/12 14:18:48;;;;;;;10.88;2.00;;;;;;;;;;5118542;27;20070;-71
2021/03/12 14:21:14;;;;;;;3.28;1.70;;;;;;;;;;5118224;27;20059;-71
2021/03/12 14:23:39;;;;;;;8.30;1.67;;;;;;;;;;5135869;27;20035;-71
2021/03/12 14:26:05;;;;;;;8.45;1.40;;;;;;;;;;5136656;27;20136;-71
2021/03/12 14:28:49;;;;;;;4.20;1.20;;;;;;;;;;5136727;27;20130;-71
2021/03/12 14:31:15;;;;;;;7.45;1.65;;;;;;;;;;5136460;27;20070;-71
2021/03/12 14:33:41;;;;;;;12.35;3.05;;;;;;;;;;5136640;27;20039;-71
2021/03/12 14:36:07;;;;;;;3.97;1.67;;;;;;;;;;5135711;27;20027;-73
2021/03/12 14:38:32;;;;;;;14.60;1.63;;;;;;;;;;5136047;27;20396;-72
2021/03/12 14:40:58;;;;;;;6.40;1.70;;;;;;;;;;5135918;27;20038;-73
2021/03/12 14:43:24;;;;;;;6.50;1.70;;;;;;;;;;5135792;27;20164;-71
2021/03/12 14:45:52;;;;;;;8.18;1.77;;;;;;;;;;5135646;27;20043;-71
2021/03/12 14:48:29;;;;;;;8.52;1.73;;;;;;;;;;5115038;27;20042;-71
2021/03/12 14:50:58;;;;;;;10.13;2.45;;;;;;;;;;5135588;27;20035;-72
2021/03/12 14:53:23;;;;;;;7.75;1.70;;;;;;;;;;5136024;27;20106;-72
2021/03/12 14:55:49;;;;;;;5.97;1.42;;;;;;;;;;5117726;27;20575;-70
2021/03/12 14:58:15;;;;;;;3.45;1.20;;;;;;;;;;5135898;27;20038;-70
2021/03/12 15:00:40;;;;;;;7.15;1.88;;;;;;;;;;5117602;27;20039;-70
2021/03/12 15:03:06;;;;;;;5.57;1.67;;;;;;;;;;5116794;27;20023;-70